Estación Meteorológica Peña el Pijo (Robertgarden) [ 11/14/19 11:50:16 CET ]

Fecha Hora Presion(HPa) Temp (°C) Humedad % Rocio (°C) Viento ( m/s) Direccion Lluvia 1Hora(mm) Lluvia 24H(mm) LLuvia Total(mm)
2019-Jul-30 01:01:39 1008.900 18.9 47 7.3         344.18
2019-Jul-30 02:01:37 1009.000 17.4 52 7.4         344.18
2019-Jul-30 03:02:21 1008.900 15.8 59 7.8         344.18
2019-Jul-30 04:02:15 1008.800 14.9 62 7.7         344.18
2019-Jul-30 05:01:39 1008.700 15.1 59 7.1         344.18
2019-Jul-30 06:01:42 1008.600 14.3 58 6.1         344.18
2019-Jul-30 07:01:45 1009.100 13.6 57 5.2         344.18
2019-Jul-30 08:01:27 1009.400 14.1 60 6.5         344.18
2019-Jul-30 09:01:49 1009.600 20.1 48 8.7         344.18
2019-Jul-30 10:01:27 1009.700 25.6 37 9.8         344.18
2019-Jul-30 11:01:11 1009.300 30.3 29 10.2         344.18
2019-Jul-30 12:01:53 1009.200 32.2 27 10.7         344.18
2019-Jul-30 13:01:49 1008.900 33.2 26 10.9         344.18
2019-Jul-30 14:01:50 1008.600 34.3 24 10.6 1.4 NNW     344.18
2019-Jul-30 15:01:55 1008.000 35.1 21 9.4 1.9 NE     344.18
2019-Jul-30 16:02:03 1007.600 36.4 20 9.9         344.18
2019-Jul-30 17:02:04 1007.000 36.8 18 8.2 1.9 NNE     344.18
2019-Jul-30 18:01:48 1007.300 32.5 32 13.6         344.18
2019-Jul-30 19:01:51 1007.700 29.9 40 14.9 2.6 SW     344.18
2019-Jul-30 20:01:42 1007.600 28.8 42 14.6         344.18
2019-Jul-30 21:01:53 1008.200 26.2 49 14.6         344.18
2019-Jul-30 22:01:39 1008.800 24.4 53 14.2         344.18
2019-Jul-30 23:01:51 1009.600 23.2 57 14.2         344.18

Temperatura Máxima:36°    Temperatura Mínima:13°
Presión Máxima:1009.700 Hpa    Presión Mínima:1007.000 Hpa


Volver